createdAt,value
2022-12-01T00:00:47.766Z,9.50
2022-12-01T00:01:47.896Z,10.20
2022-12-01T00:02:47.932Z,11.20
2022-12-01T00:03:47.781Z,10.20
2022-12-01T00:04:47.729Z,10.50
2022-12-01T00:05:47.728Z,10.50
2022-12-01T00:06:47.688Z,11.10
2022-12-01T00:07:47.744Z,10.00
2022-12-01T00:08:47.695Z,11.50
2022-12-01T00:09:48.033Z,10.40
2022-12-01T00:10:47.642Z,11.40
2022-12-01T00:11:47.644Z,10.60
2022-12-01T00:12:47.641Z,11.00
2022-12-01T00:13:47.628Z,10.60
2022-12-01T00:14:47.609Z,10.90
2022-12-01T00:15:47.770Z,10.10
2022-12-01T00:16:47.715Z,11.10
2022-12-01T00:17:47.558Z,10.40
2022-12-01T00:18:47.584Z,10.30
2022-12-01T00:19:47.952Z,10.50
2022-12-01T00:20:47.536Z,10.30
2022-12-01T00:21:47.524Z,10.30
2022-12-01T00:22:47.510Z,11.70
2022-12-01T00:23:47.512Z,11.10
2022-12-01T00:24:47.505Z,10.10
2022-12-01T00:25:47.472Z,9.60
2022-12-01T00:26:47.482Z,9.50
2022-12-01T00:27:47.444Z,9.50
2022-12-01T00:28:47.433Z,9.80
2022-12-01T00:29:47.732Z,10.50
2022-12-01T00:30:47.433Z,10.40
2022-12-01T00:31:47.428Z,9.70
2022-12-01T00:32:47.373Z,9.60
2022-12-01T00:33:47.341Z,9.60
2022-12-01T00:34:47.353Z,9.80
2022-12-01T00:35:47.339Z,8.70
2022-12-01T00:36:47.328Z,9.90
2022-12-01T00:37:47.283Z,9.60
2022-12-01T00:38:47.296Z,9.80
2022-12-01T00:39:47.700Z,9.60
2022-12-01T00:40:47.270Z,9.10
2022-12-01T00:41:47.265Z,9.10
2022-12-01T00:42:47.297Z,9.60
2022-12-01T00:43:47.206Z,8.90
2022-12-01T00:44:47.217Z,9.30
2022-12-01T00:45:47.252Z,9.50
2022-12-01T00:46:47.238Z,8.80
2022-12-01T00:47:47.154Z,8.90
2022-12-01T00:48:47.169Z,8.90
2022-12-01T00:49:47.487Z,9.90
2022-12-01T00:50:47.136Z,8.80
2022-12-01T00:51:47.104Z,9.20
2022-12-01T00:52:47.157Z,9.40
2022-12-01T00:53:47.084Z,8.90
2022-12-01T00:54:47.090Z,8.70
2022-12-01T00:55:47.072Z,9.60
2022-12-01T00:56:47.070Z,9.40
2022-12-01T00:57:47.056Z,8.40
2022-12-01T00:58:47.047Z,8.70
2022-12-01T00:59:47.353Z,9.40
2022-12-01T01:00:47.015Z,9.40
2022-12-01T01:01:47.121Z,8.90
2022-12-01T01:02:47.111Z,9.30
2022-12-01T01:03:47.167Z,8.50
2022-12-01T01:04:46.978Z,9.00
2022-12-01T01:05:46.936Z,9.50
2022-12-01T01:06:46.979Z,9.30
2022-12-01T01:07:46.956Z,8.50
2022-12-01T01:08:46.940Z,8.80
2022-12-01T01:09:47.360Z,8.50
2022-12-01T01:10:46.882Z,8.90
2022-12-01T01:11:46.834Z,8.80
2022-12-01T01:12:46.880Z,8.90
2022-12-01T01:13:46.813Z,9.70
2022-12-01T01:14:46.851Z,9.50
2022-12-01T01:15:46.823Z,9.60
2022-12-01T01:16:46.852Z,9.30
2022-12-01T01:17:46.765Z,8.70
2022-12-01T01:18:46.803Z,9.40
2022-12-01T01:19:47.061Z,8.80
2022-12-01T01:20:46.743Z,8.70
2022-12-01T01:21:46.753Z,9.00
2022-12-01T01:22:46.693Z,8.70
2022-12-01T01:23:46.711Z,9.40
2022-12-01T01:24:46.668Z,9.70
2022-12-01T01:25:46.749Z,8.70
2022-12-01T01:26:46.649Z,8.50
2022-12-01T01:27:46.657Z,8.90
2022-12-01T01:28:46.630Z,8.40
2022-12-01T01:29:46.887Z,8.70
2022-12-01T01:30:46.671Z,9.40
2022-12-01T01:31:46.644Z,8.50
2022-12-01T01:32:46.569Z,7.70
2022-12-01T01:33:46.574Z,9.00
2022-12-01T01:34:46.554Z,8.60
2022-12-01T01:35:46.551Z,7.80
2022-12-01T01:36:46.544Z,8.60
2022-12-01T01:37:46.542Z,7.60
2022-12-01T01:38:46.490Z,7.90
2022-12-01T01:39:46.783Z,7.80
2022-12-01T01:40:46.513Z,7.80
2022-12-01T01:41:46.508Z,7.60
2022-12-01T01:42:46.437Z,8.20
2022-12-01T01:43:46.467Z,7.30
2022-12-01T01:44:46.441Z,7.60
2022-12-01T01:45:46.449Z,8.40
2022-12-01T01:46:46.417Z,8.30
2022-12-01T01:47:46.424Z,7.60
2022-12-01T01:48:46.356Z,7.80
2022-12-01T01:49:46.843Z,8.90
2022-12-01T01:50:46.345Z,8.10
2022-12-01T01:51:46.371Z,7.70
2022-12-01T01:52:46.340Z,8.00
2022-12-01T01:53:46.508Z,7.30
2022-12-01T01:54:46.301Z,7.60
2022-12-01T01:55:46.289Z,8.60
2022-12-01T01:56:46.276Z,8.30
2022-12-01T01:57:46.265Z,8.60
2022-12-01T01:58:46.256Z,7.60
2022-12-01T01:59:46.526Z,8.20
2022-12-01T02:00:46.198Z,7.70
2022-12-01T02:01:46.336Z,8.10
2022-12-01T02:02:46.273Z,8.30
2022-12-01T02:03:46.236Z,8.60
2022-12-01T02:04:46.142Z,8.20
2022-12-01T02:05:46.170Z,9.30
2022-12-01T02:06:46.121Z,7.40
2022-12-01T02:07:46.214Z,7.50
2022-12-01T02:08:46.149Z,7.60
2022-12-01T02:09:46.341Z,7.80
2022-12-01T02:10:46.075Z,7.70
2022-12-01T02:11:46.119Z,7.70
2022-12-01T02:12:46.046Z,7.90
2022-12-01T02:13:46.062Z,7.50
2022-12-01T02:14:46.058Z,7.10
2022-12-01T02:15:46.086Z,6.60
2022-12-01T02:16:46.067Z,6.80
2022-12-01T02:17:46.002Z,7.20
2022-12-01T02:18:46.000Z,7.30
2022-12-01T02:19:46.186Z,7.10
2022-12-01T02:20:45.979Z,6.70
2022-12-01T02:21:45.956Z,6.50
2022-12-01T02:22:50.690Z,5.80
2022-12-01T02:23:45.929Z,6.40
2022-12-01T02:24:45.888Z,6.40
2022-12-01T02:25:45.959Z,6.60
2022-12-01T02:26:45.866Z,7.20
2022-12-01T02:27:45.865Z,6.40
2022-12-01T02:28:45.885Z,6.70
2022-12-01T02:29:45.915Z,6.30
2022-12-01T02:30:45.878Z,6.00
2022-12-01T02:31:45.855Z,6.40
2022-12-01T02:32:45.796Z,6.70
2022-12-01T02:33:45.794Z,6.20
2022-12-01T02:34:45.758Z,6.40
2022-12-01T02:35:45.820Z,6.30
2022-12-01T02:36:45.760Z,7.00
2022-12-01T02:37:45.745Z,6.10
2022-12-01T02:38:45.759Z,6.00
2022-12-01T02:39:45.817Z,5.60
2022-12-01T02:40:45.691Z,6.50
2022-12-01T02:41:45.769Z,5.30
2022-12-01T02:42:45.658Z,5.60
2022-12-01T02:43:45.664Z,6.00
2022-12-01T02:44:45.621Z,6.20
2022-12-01T02:45:45.753Z,7.30
2022-12-01T02:46:45.605Z,6.20
2022-12-01T02:47:45.634Z,5.30
2022-12-01T02:48:45.681Z,6.40
2022-12-01T02:49:45.704Z,8.50
2022-12-01T02:52:02.249Z,7.40
2022-12-01T02:53:03.188Z,7.90
2022-12-01T02:54:03.178Z,7.70
2022-12-01T02:55:03.161Z,6.50
2022-12-01T02:56:03.157Z,7.30
2022-12-01T02:57:03.173Z,6.20
2022-12-01T02:58:03.145Z,5.00
2022-12-01T02:59:03.092Z,5.00
2022-12-01T03:00:03.111Z,5.00
2022-12-01T03:01:03.133Z,6.60
2022-12-01T03:02:03.096Z,6.60
2022-12-01T03:03:03.103Z,8.80
2022-12-01T03:04:03.055Z,7.90
2022-12-01T03:05:03.036Z,9.10
2022-12-01T03:06:03.039Z,6.70
2022-12-01T03:07:03.023Z,6.30
2022-12-01T03:08:03.088Z,8.10
2022-12-01T03:09:02.979Z,7.00
2022-12-01T03:10:02.971Z,7.00
2022-12-01T03:11:02.940Z,6.50
2022-12-01T03:12:02.955Z,6.80
2022-12-01T03:13:02.916Z,7.00
2022-12-01T03:14:02.948Z,7.00
2022-12-01T03:15:02.903Z,7.20
2022-12-01T03:16:02.953Z,7.30
2022-12-01T03:17:02.915Z,7.30
2022-12-01T03:18:02.880Z,7.80
2022-12-01T03:19:02.862Z,8.40
2022-12-01T03:20:02.883Z,8.10
2022-12-01T03:21:02.844Z,7.70
2022-12-01T03:22:02.832Z,7.50
2022-12-01T03:23:02.785Z,8.60
2022-12-01T03:24:02.850Z,8.10
2022-12-01T03:25:02.873Z,8.50
2022-12-01T03:26:02.786Z,8.50
2022-12-01T03:27:02.739Z,9.00
2022-12-01T03:29:02.712Z,8.10
2022-12-01T03:30:02.781Z,8.20
2022-12-01T03:31:02.732Z,8.80
2022-12-01T03:32:02.726Z,8.10
2022-12-01T03:33:02.663Z,8.40
2022-12-01T03:34:02.676Z,7.90
2022-12-01T03:35:02.658Z,8.30
2022-12-01T03:36:02.648Z,7.80
2022-12-01T03:37:02.609Z,8.30
2022-12-01T03:38:02.620Z,8.30
2022-12-01T03:39:02.585Z,8.00
2022-12-01T03:40:02.647Z,9.00
2022-12-01T03:41:02.576Z,8.50
2022-12-01T03:42:02.583Z,7.90
2022-12-01T03:43:02.528Z,8.90
2022-12-01T03:44:02.562Z,9.00
2022-12-01T03:45:02.508Z,8.10
2022-12-01T03:46:02.609Z,8.30
2022-12-01T03:47:02.488Z,8.40
2022-12-01T03:48:02.497Z,8.40
2022-12-01T03:49:02.466Z,7.70
2022-12-01T03:50:02.466Z,8.30
2022-12-01T03:51:02.450Z,8.00
2022-12-01T03:52:02.471Z,8.00
2022-12-01T03:53:02.403Z,8.00
2022-12-01T03:54:02.457Z,8.70
2022-12-01T03:55:02.378Z,8.70
2022-12-01T03:56:02.476Z,8.00
2022-12-01T03:57:02.373Z,8.30
2022-12-01T03:58:02.378Z,9.00
2022-12-01T03:59:02.329Z,8.40
2022-12-01T04:00:02.332Z,8.70
2022-12-01T04:01:02.386Z,8.30
2022-12-01T04:02:02.395Z,8.50
2022-12-01T04:03:02.415Z,8.40
2022-12-01T04:04:02.289Z,8.10
2022-12-01T04:05:02.293Z,9.00
2022-12-01T04:06:02.257Z,9.40
2022-12-01T04:07:02.263Z,8.60
2022-12-01T04:08:02.376Z,9.00
2022-12-01T04:09:02.208Z,8.50
2022-12-01T04:10:02.209Z,9.00
2022-12-01T04:11:02.171Z,8.80
2022-12-01T04:12:02.223Z,9.20
2022-12-01T04:13:02.170Z,8.60
2022-12-01T04:14:02.183Z,9.00
2022-12-01T04:15:02.170Z,9.80
2022-12-01T04:16:02.223Z,10.40
2022-12-01T04:17:02.159Z,9.30
2022-12-01T04:18:02.110Z,8.80
2022-12-01T04:19:02.135Z,9.20
2022-12-01T04:20:02.094Z,9.20
2022-12-01T04:21:02.055Z,9.00
2022-12-01T04:22:02.071Z,8.90
2022-12-01T04:23:02.077Z,9.10
2022-12-01T04:24:02.046Z,9.30
2022-12-01T04:25:01.993Z,8.60
2022-12-01T04:26:02.070Z,9.00
2022-12-01T04:27:01.985Z,9.90
2022-12-01T04:28:02.016Z,8.90
2022-12-01T04:29:01.979Z,8.90
2022-12-01T04:30:01.957Z,8.50
2022-12-01T04:31:01.948Z,8.70
2022-12-01T04:32:01.937Z,8.80
2022-12-01T04:33:01.893Z,8.60
2022-12-01T04:34:01.928Z,8.50
2022-12-01T04:35:01.869Z,8.50
2022-12-01T04:36:01.921Z,8.60
2022-12-01T04:37:01.861Z,8.80
2022-12-01T04:38:01.831Z,8.80
2022-12-01T04:39:01.884Z,8.00
2022-12-01T04:40:01.857Z,8.30
2022-12-01T04:41:01.812Z,8.40
2022-12-01T04:42:01.813Z,8.30
2022-12-01T04:43:01.801Z,8.10
2022-12-01T04:44:01.749Z,8.70
2022-12-01T04:45:01.802Z,8.70
2022-12-01T04:46:01.744Z,8.50
2022-12-01T04:47:01.809Z,8.50
2022-12-01T04:48:01.767Z,7.80
2022-12-01T04:49:01.713Z,8.90
2022-12-01T04:50:01.717Z,8.70
2022-12-01T04:51:01.759Z,8.40
2022-12-01T04:52:01.662Z,8.20
2022-12-01T04:53:01.655Z,8.40
2022-12-01T04:54:01.620Z,7.70
2022-12-01T04:55:01.735Z,7.80
2022-12-01T04:56:01.625Z,8.10
2022-12-01T04:57:01.607Z,8.20
2022-12-01T04:58:01.576Z,7.30
2022-12-01T04:59:01.579Z,7.90
2022-12-01T05:00:01.546Z,7.70
2022-12-01T05:01:01.638Z,8.10
2022-12-01T05:02:01.585Z,7.90
2022-12-01T05:03:01.531Z,8.80
2022-12-01T05:04:01.498Z,7.70
2022-12-01T05:05:01.521Z,8.40
2022-12-01T05:06:01.465Z,7.30
2022-12-01T05:07:01.508Z,7.80
2022-12-01T05:08:01.503Z,7.50
2022-12-01T05:09:01.453Z,7.90
2022-12-01T05:10:01.427Z,8.10
2022-12-01T05:11:01.470Z,7.30
2022-12-01T05:12:01.418Z,8.60
2022-12-01T05:13:01.406Z,8.50
2022-12-01T05:14:01.404Z,7.90
2022-12-01T05:15:01.410Z,8.00
2022-12-01T05:16:01.392Z,8.50
2022-12-01T05:17:01.371Z,8.20
2022-12-01T05:18:01.321Z,8.50
2022-12-01T05:19:01.405Z,8.80
2022-12-01T05:20:01.301Z,9.50
2022-12-01T05:21:01.350Z,9.00
2022-12-01T05:22:01.293Z,9.10
2022-12-01T05:23:06.071Z,9.20
2022-12-01T05:24:01.359Z,9.20
2022-12-01T05:25:01.243Z,9.40
2022-12-01T05:26:01.245Z,8.80
2022-12-01T05:27:01.357Z,9.00
2022-12-01T05:28:01.243Z,9.80
2022-12-01T05:29:01.209Z,9.00
2022-12-01T05:30:01.174Z,9.40
2022-12-01T05:31:01.320Z,9.20
2022-12-01T05:32:01.240Z,8.60
2022-12-01T05:33:01.150Z,8.60
2022-12-01T05:34:01.141Z,10.00
2022-12-01T05:35:01.119Z,10.20
2022-12-01T05:36:01.087Z,9.30
2022-12-01T05:37:01.176Z,10.60
2022-12-01T05:38:07.379Z,11.20
2022-12-01T05:39:01.078Z,9.80
2022-12-01T05:40:01.045Z,10.40
2022-12-01T05:41:01.204Z,10.30
2022-12-01T05:42:01.034Z,9.60
2022-12-01T05:43:01.102Z,9.60
2022-12-01T05:44:01.036Z,9.30
2022-12-01T05:45:00.991Z,9.70
2022-12-01T05:46:01.017Z,9.20
2022-12-01T05:47:00.984Z,8.80
2022-12-01T05:48:00.968Z,8.40
2022-12-01T05:49:01.005Z,8.50
2022-12-01T05:50:05.481Z,9.00
2022-12-01T05:51:00.937Z,8.90
2022-12-01T05:52:00.987Z,8.50
2022-12-01T05:53:00.937Z,8.70
2022-12-01T05:54:00.897Z,8.40
2022-12-01T05:55:00.863Z,9.00
2022-12-01T05:56:00.843Z,7.50
2022-12-01T05:57:00.837Z,7.80
2022-12-01T05:58:00.795Z,7.40
2022-12-01T05:59:00.849Z,7.80
2022-12-01T06:00:00.777Z,7.70
2022-12-01T06:01:00.786Z,7.90
2022-12-01T06:02:00.803Z,7.80
2022-12-01T06:03:00.755Z,7.10
2022-12-01T06:04:00.776Z,7.40
2022-12-01T06:05:00.776Z,7.10
2022-12-01T06:06:00.739Z,6.90
2022-12-01T06:07:00.719Z,7.60
2022-12-01T06:08:00.727Z,7.60
2022-12-01T06:09:00.682Z,7.00
2022-12-01T06:10:00.691Z,8.50
2022-12-01T06:11:00.691Z,7.30
2022-12-01T06:12:00.644Z,7.00
2022-12-01T06:13:00.653Z,6.10
2022-12-01T06:14:00.689Z,7.00
2022-12-01T06:15:00.663Z,6.90
2022-12-01T06:16:00.633Z,7.70
2022-12-01T06:17:00.688Z,7.10
2022-12-01T06:18:00.570Z,6.90
2022-12-01T06:19:00.615Z,6.50
2022-12-01T06:20:00.531Z,7.00
2022-12-01T06:21:00.568Z,7.00
2022-12-01T06:22:00.494Z,7.20
2022-12-01T06:23:00.529Z,6.90
2022-12-01T06:24:00.477Z,7.10
2022-12-01T06:25:00.504Z,6.30
2022-12-01T06:26:00.488Z,6.80
2022-12-01T06:27:00.528Z,7.20
2022-12-01T06:28:00.425Z,6.20
2022-12-01T06:29:00.687Z,6.60
2022-12-01T06:30:00.409Z,6.20
2022-12-01T06:31:03.456Z,7.30
2022-12-01T06:32:00.432Z,6.60
2022-12-01T06:33:00.388Z,7.30
2022-12-01T06:34:00.455Z,6.50
2022-12-01T06:35:00.366Z,7.00
2022-12-01T06:36:00.329Z,6.60
2022-12-01T06:37:00.307Z,6.30
2022-12-01T06:38:00.387Z,8.00
2022-12-01T06:39:00.275Z,6.20
2022-12-01T06:40:00.244Z,7.00
2022-12-01T06:41:00.233Z,7.30
2022-12-01T06:42:00.284Z,6.70
2022-12-01T06:43:00.240Z,6.40
2022-12-01T06:44:00.165Z,6.60
2022-12-01T06:45:00.184Z,6.40
2022-12-01T06:46:02.400Z,6.60
2022-12-01T06:47:00.162Z,6.50
2022-12-01T06:48:00.147Z,6.50
2022-12-01T06:49:00.119Z,7.30
2022-12-01T06:50:00.122Z,6.80
2022-12-01T06:51:00.267Z,6.90
2022-12-01T06:52:01.185Z,7.20
2022-12-01T06:53:00.086Z,7.50
2022-12-01T06:54:05.223Z,7.00
2022-12-01T06:55:00.102Z,7.20
2022-12-01T06:56:00.004Z,7.40
2022-12-01T06:57:00.026Z,7.50
2022-12-01T06:57:59.984Z,7.10
2022-12-01T06:59:00.024Z,6.90
2022-12-01T06:59:59.964Z,7.00
2022-12-01T07:01:00.234Z,7.40
2022-12-01T07:01:59.998Z,7.50
2022-12-01T07:02:59.995Z,6.10
2022-12-01T07:03:59.906Z,7.40
2022-12-01T07:04:59.965Z,6.70
2022-12-01T07:05:59.886Z,6.50
2022-12-01T07:06:59.954Z,7.20
2022-12-01T07:08:00.045Z,7.50
2022-12-01T07:08:59.881Z,7.50
2022-12-01T07:09:59.861Z,7.30
2022-12-01T07:10:59.863Z,7.50
2022-12-01T07:11:59.804Z,7.20
2022-12-01T07:12:59.815Z,7.70
2022-12-01T07:13:59.778Z,7.40
2022-12-01T07:14:59.799Z,7.50
2022-12-01T07:15:59.793Z,10.60
2022-12-01T07:16:59.877Z,6.90
2022-12-01T07:17:59.737Z,7.50
2022-12-01T07:18:59.752Z,7.50
2022-12-01T07:19:59.714Z,7.90
2022-12-01T07:20:59.755Z,7.50
2022-12-01T07:21:59.694Z,6.80
2022-12-01T07:22:59.684Z,7.60
2022-12-01T07:23:59.648Z,8.40
2022-12-01T07:24:59.692Z,7.60
2022-12-01T07:25:59.671Z,7.30
2022-12-01T07:26:59.684Z,7.80
2022-12-01T07:27:59.695Z,8.20
2022-12-01T07:28:59.623Z,8.50
2022-12-01T07:29:59.578Z,8.00
2022-12-01T07:30:59.765Z,8.00
2022-12-01T07:31:59.605Z,9.50
2022-12-01T07:32:59.617Z,8.10
2022-12-01T07:33:59.540Z,8.40
2022-12-01T07:34:59.547Z,8.80
2022-12-01T07:35:59.536Z,8.40
2022-12-01T07:36:59.510Z,8.90
2022-12-01T07:37:59.558Z,8.30
2022-12-01T07:38:59.495Z,8.40
2022-12-01T07:39:59.478Z,8.90
2022-12-01T07:40:59.461Z,9.30
2022-12-01T07:41:59.416Z,9.60
2022-12-01T07:42:59.466Z,10.00
2022-12-01T07:43:59.396Z,10.10
2022-12-01T07:44:59.401Z,10.40
2022-12-01T07:45:59.469Z,10.60
2022-12-01T07:46:59.412Z,11.00
2022-12-01T07:47:59.438Z,12.20
2022-12-01T07:48:59.399Z,10.60
2022-12-01T07:49:59.318Z,10.20
2022-12-01T07:50:59.447Z,9.70
2022-12-01T07:51:59.285Z,9.10
2022-12-01T07:52:59.311Z,10.50
2022-12-01T07:53:59.326Z,11.00
2022-12-01T07:54:59.310Z,9.90
2022-12-01T07:56:01.146Z,9.50
2022-12-01T07:56:59.262Z,10.10
2022-12-01T07:57:59.213Z,10.60
2022-12-01T07:58:59.233Z,9.80
2022-12-01T07:59:59.309Z,11.50
2022-12-01T08:00:59.200Z,11.00
2022-12-01T08:01:59.234Z,11.10
2022-12-01T08:02:59.243Z,13.70
2022-12-01T08:03:59.153Z,14.00
2022-12-01T08:04:59.202Z,12.50
2022-12-01T08:05:59.181Z,13.10
2022-12-01T08:06:59.128Z,12.90
2022-12-01T08:07:59.236Z,13.70
2022-12-01T08:08:59.106Z,14.40
2022-12-01T08:09:59.064Z,14.20
2022-12-01T08:10:59.192Z,16.90
2022-12-01T08:11:59.063Z,17.30
2022-12-01T08:12:59.066Z,14.40
2022-12-01T08:13:59.084Z,12.60
2022-12-01T08:14:59.027Z,14.20
2022-12-01T08:15:59.158Z,14.80
2022-12-01T08:16:58.998Z,16.60
2022-12-01T08:17:58.991Z,12.60
2022-12-01T08:18:59.004Z,14.80
2022-12-01T08:19:58.960Z,19.80
2022-12-01T08:20:59.006Z,16.00
2022-12-01T08:21:58.947Z,16.10
2022-12-01T08:22:58.924Z,15.70
2022-12-01T08:23:58.893Z,14.10
2022-12-01T08:24:58.909Z,14.40
2022-12-01T08:25:58.898Z,14.50
2022-12-01T08:26:58.916Z,14.50
2022-12-01T08:27:58.833Z,12.00
2022-12-01T08:28:58.842Z,16.60
2022-12-01T08:29:58.885Z,13.80
2022-12-01T08:30:58.876Z,13.20
2022-12-01T08:31:58.821Z,14.80
2022-12-01T08:32:58.803Z,12.20
2022-12-01T08:33:58.763Z,12.90
2022-12-01T08:34:58.777Z,14.70
2022-12-01T08:35:58.734Z,16.00
2022-12-01T08:36:58.745Z,13.60
2022-12-01T08:37:58.740Z,14.20
2022-12-01T08:38:58.724Z,12.00
2022-12-01T08:39:58.692Z,12.50
2022-12-01T08:40:58.698Z,13.30
2022-12-01T08:41:58.658Z,11.30
2022-12-01T08:42:58.695Z,10.50
2022-12-01T08:43:59.567Z,12.30
2022-12-01T08:44:58.760Z,11.10
2022-12-01T08:45:58.692Z,11.10
2022-12-01T08:46:58.684Z,10.90
2022-12-01T08:47:58.614Z,11.00
2022-12-01T08:48:58.666Z,11.40
2022-12-01T08:49:58.568Z,11.60
2022-12-01T08:50:58.601Z,12.60
2022-12-01T08:51:58.624Z,11.30
2022-12-01T08:52:58.522Z,12.60
2022-12-01T08:53:58.622Z,11.80
2022-12-01T08:54:58.489Z,13.00
2022-12-01T08:55:58.605Z,12.60
2022-12-01T08:56:58.461Z,11.80
2022-12-01T08:57:58.487Z,11.50
2022-12-01T08:58:58.556Z,10.80
2022-12-01T08:59:58.453Z,11.00
2022-12-01T09:00:58.433Z,10.40
2022-12-01T09:02:00.474Z,9.70
2022-12-01T09:02:58.414Z,9.70
2022-12-01T09:03:58.449Z,9.30
2022-12-01T09:04:58.375Z,9.00
2022-12-01T09:05:58.372Z,8.70
2022-12-01T09:06:58.373Z,8.70
2022-12-01T09:07:58.469Z,9.40
2022-12-01T09:08:58.308Z,9.50
2022-12-01T09:09:58.383Z,10.10
2022-12-01T09:10:58.295Z,9.70
2022-12-01T09:11:58.297Z,9.30
2022-12-01T09:12:58.255Z,9.50
2022-12-01T09:13:58.269Z,9.50
2022-12-01T09:14:58.262Z,9.00
2022-12-01T09:15:58.310Z,8.80
2022-12-01T09:16:58.272Z,8.30
2022-12-01T09:17:58.244Z,8.10
2022-12-01T09:18:58.184Z,8.50
2022-12-01T09:19:58.244Z,8.20
2022-12-01T09:20:58.159Z,8.10
2022-12-01T09:21:58.236Z,7.80
2022-12-01T09:22:58.152Z,6.90
2022-12-01T09:23:58.152Z,7.00
2022-12-01T09:24:58.117Z,7.60
2022-12-01T09:25:58.147Z,7.90
2022-12-01T09:26:58.157Z,8.10
2022-12-01T09:27:58.104Z,7.90
2022-12-01T09:28:58.056Z,7.70
2022-12-01T09:29:58.079Z,7.60
2022-12-01T09:30:58.169Z,7.60
2022-12-01T09:31:58.052Z,8.00
2022-12-01T09:32:58.006Z,8.30
2022-12-01T09:33:58.013Z,8.10
2022-12-01T09:34:58.033Z,7.80
2022-12-01T09:35:58.019Z,7.30
2022-12-01T09:36:57.969Z,7.10
2022-12-01T09:37:57.964Z,7.40
2022-12-01T09:38:57.992Z,7.70
2022-12-01T09:39:57.943Z,7.40
2022-12-01T09:40:57.903Z,7.50
2022-12-01T09:41:57.942Z,8.10
2022-12-01T09:42:57.866Z,7.60
2022-12-01T09:43:57.962Z,7.90
2022-12-01T09:44:57.874Z,7.30
2022-12-01T09:45:57.887Z,7.40
2022-12-01T09:46:57.997Z,7.70
2022-12-01T09:47:57.908Z,8.00
2022-12-01T09:48:57.805Z,8.30
2022-12-01T09:49:57.849Z,8.30
2022-12-01T09:50:57.776Z,7.90
2022-12-01T09:51:57.833Z,8.80
2022-12-01T09:52:57.760Z,8.30
2022-12-01T09:53:57.827Z,9.10
2022-12-01T09:54:57.721Z,9.30
2022-12-01T09:56:04.179Z,10.30
2022-12-01T09:56:57.725Z,9.90
2022-12-01T09:57:57.727Z,9.30
2022-12-01T09:58:57.687Z,9.40
2022-12-01T09:59:57.689Z,9.10
2022-12-01T10:00:57.699Z,10.10
2022-12-01T10:01:57.698Z,10.00
2022-12-01T10:02:57.651Z,9.00
2022-12-01T10:03:57.643Z,9.60
2022-12-01T10:04:57.653Z,10.00
2022-12-01T10:06:26.146Z,9.30
2022-12-01T10:06:57.586Z,8.90
2022-12-01T10:07:57.654Z,9.40
2022-12-01T10:08:57.543Z,9.80
2022-12-01T10:09:57.558Z,9.60
2022-12-01T10:10:57.518Z,10.60
2022-12-01T10:11:57.521Z,10.10
2022-12-01T10:12:57.520Z,9.30
2022-12-01T10:13:57.537Z,10.20
2022-12-01T10:14:57.480Z,9.40
2022-12-01T10:15:57.491Z,9.10
2022-12-01T10:16:57.501Z,9.40
2022-12-01T10:17:57.461Z,9.90
2022-12-01T10:18:57.447Z,10.60
2022-12-01T10:19:57.456Z,10.00
2022-12-01T10:20:57.419Z,10.80
2022-12-01T10:21:57.406Z,10.30
2022-12-01T10:22:57.413Z,11.20
2022-12-01T10:23:57.404Z,10.20
2022-12-01T10:24:57.344Z,10.30
2022-12-01T10:25:57.348Z,11.00
2022-12-01T10:26:57.326Z,10.20
2022-12-01T10:27:57.334Z,10.80
2022-12-01T10:28:57.295Z,11.80
2022-12-01T10:29:57.354Z,10.80
2022-12-01T10:30:57.265Z,11.50
2022-12-01T10:31:57.381Z,11.10
2022-12-01T10:32:57.242Z,11.40
2022-12-01T10:33:57.249Z,11.40
2022-12-01T10:34:57.243Z,13.60
2022-12-01T10:35:57.299Z,11.80
2022-12-01T10:36:57.181Z,12.10
2022-12-01T10:37:57.264Z,12.50
2022-12-01T10:38:57.175Z,11.90
2022-12-01T10:39:57.166Z,12.40
2022-12-01T10:40:57.165Z,13.30
2022-12-01T10:41:57.138Z,12.10
2022-12-01T10:42:57.124Z,12.30
2022-12-01T10:43:57.144Z,12.80
2022-12-01T10:44:57.090Z,12.20
2022-12-01T10:45:57.161Z,12.40
2022-12-01T10:46:57.077Z,12.70
2022-12-01T10:47:58.949Z,12.10
2022-12-01T10:48:57.081Z,12.30
2022-12-01T10:49:57.047Z,11.10
2022-12-01T10:50:57.024Z,12.30
2022-12-01T10:51:57.133Z,12.00
2022-12-01T10:52:56.992Z,13.20
2022-12-01T10:53:57.077Z,13.70
2022-12-01T10:54:56.971Z,13.00
2022-12-01T10:55:56.985Z,13.80
2022-12-01T10:56:56.969Z,13.90
2022-12-01T10:57:57.112Z,13.80
2022-12-01T10:58:56.919Z,12.30
2022-12-01T10:59:57.097Z,12.90
2022-12-01T11:00:59.945Z,14.60
2022-12-01T11:01:57.089Z,12.90
2022-12-01T11:02:57.109Z,13.50
2022-12-01T11:03:57.084Z,14.70
2022-12-01T11:04:56.827Z,15.30
2022-12-01T11:05:56.833Z,14.70
2022-12-01T11:06:56.802Z,14.20
2022-12-01T11:07:56.901Z,14.30
2022-12-01T11:08:56.788Z,13.90
2022-12-01T11:09:56.786Z,14.00
2022-12-01T11:10:56.880Z,14.10
2022-12-01T11:11:56.781Z,14.10
2022-12-01T11:12:56.731Z,13.80
2022-12-01T11:13:56.917Z,13.10
2022-12-01T11:14:56.716Z,13.10
2022-12-01T11:15:56.723Z,13.80
2022-12-01T11:16:56.737Z,14.60
2022-12-01T11:17:56.718Z,13.50
2022-12-01T11:18:56.702Z,13.80
2022-12-01T11:19:56.895Z,13.70
2022-12-01T11:20:56.661Z,14.20
2022-12-01T11:21:56.665Z,14.70
2022-12-01T11:22:56.600Z,15.70
2022-12-01T11:23:56.686Z,13.70
2022-12-01T11:24:56.617Z,15.30
2022-12-01T11:25:56.599Z,14.40
2022-12-01T11:26:56.552Z,14.10
2022-12-01T11:27:56.584Z,14.20
2022-12-01T11:28:56.522Z,15.40
2022-12-01T11:29:56.630Z,15.50
2022-12-01T11:30:56.858Z,15.60
2022-12-01T11:31:56.597Z,15.10
2022-12-01T11:32:56.508Z,15.00
2022-12-01T11:33:56.482Z,15.40
2022-12-01T11:34:56.443Z,14.70
2022-12-01T11:35:56.597Z,14.80
2022-12-01T11:36:56.546Z,14.40
2022-12-01T11:38:27.703Z,15.10
2022-12-01T11:38:56.404Z,15.90
2022-12-01T11:39:56.405Z,14.80
2022-12-01T11:40:56.435Z,15.60
2022-12-01T11:41:56.390Z,15.10
2022-12-01T11:42:56.347Z,15.50
2022-12-01T11:44:01.642Z,16.40
2022-12-01T11:44:56.334Z,16.00
2022-12-01T11:45:56.368Z,15.50
2022-12-01T11:47:21.480Z,15.50
2022-12-01T11:47:56.329Z,14.80
2022-12-01T11:48:56.267Z,14.70
2022-12-01T11:49:56.276Z,15.20
2022-12-01T11:50:56.247Z,15.10
2022-12-01T11:51:56.278Z,16.10
2022-12-01T11:52:56.221Z,16.30
2022-12-01T11:53:56.289Z,14.50
2022-12-01T11:54:56.188Z,15.00
2022-12-01T11:55:57.148Z,15.10
2022-12-01T11:57:31.915Z,15.60
2022-12-01T11:57:56.224Z,15.10
2022-12-01T11:58:56.324Z,14.90
2022-12-01T11:59:56.185Z,13.90
2022-12-01T12:00:56.163Z,15.50
2022-12-01T12:01:56.238Z,15.30
2022-12-01T12:02:56.140Z,15.30
2022-12-01T12:03:56.138Z,15.20
2022-12-01T12:04:56.086Z,14.80
2022-12-01T12:06:05.912Z,15.30
2022-12-01T12:06:56.037Z,14.70
2022-12-01T12:07:56.131Z,16.30
2022-12-01T12:08:56.081Z,14.50
2022-12-01T12:09:56.030Z,15.00
2022-12-01T12:10:56.072Z,14.40
2022-12-01T12:11:55.997Z,15.20
2022-12-01T12:12:55.962Z,15.60
2022-12-01T12:13:56.014Z,14.70
2022-12-01T12:14:55.941Z,16.00
2022-12-01T12:15:55.964Z,16.50
2022-12-01T12:16:55.930Z,14.60
2022-12-01T12:17:55.985Z,15.50
2022-12-01T12:18:55.884Z,15.60
2022-12-01T12:20:12.316Z,15.10
2022-12-01T12:20:55.866Z,14.80
2022-12-01T12:21:55.873Z,15.80
2022-12-01T12:22:56.128Z,14.30
2022-12-01T12:23:55.993Z,14.60
2022-12-01T12:24:55.863Z,15.20
2022-12-01T12:25:55.831Z,15.70
2022-12-01T12:26:55.783Z,14.60
2022-12-01T12:27:55.834Z,14.40
2022-12-01T12:28:55.759Z,14.10
2022-12-01T12:29:55.768Z,15.70
2022-12-01T12:30:55.912Z,15.00
2022-12-01T12:31:55.743Z,17.00
2022-12-01T12:32:55.706Z,17.40
2022-12-01T12:33:55.724Z,16.20
2022-12-01T12:34:55.681Z,15.50
2022-12-01T12:35:55.722Z,15.70
2022-12-01T12:36:55.797Z,16.90
2022-12-01T12:37:55.660Z,15.10
2022-12-01T12:38:55.632Z,14.90
2022-12-01T12:39:55.791Z,14.80
2022-12-01T12:40:55.651Z,14.90
2022-12-01T12:41:55.667Z,15.60
2022-12-01T12:42:55.579Z,13.80
2022-12-01T12:43:55.617Z,12.90
2022-12-01T12:44:55.561Z,13.40
2022-12-01T12:45:55.588Z,14.10
2022-12-01T12:46:55.603Z,13.70
2022-12-01T12:47:55.536Z,12.70
2022-12-01T12:49:55.520Z,12.00
2022-12-01T12:50:55.477Z,12.40
2022-12-01T12:51:55.498Z,11.80
2022-12-01T12:52:55.488Z,11.70
2022-12-01T12:53:55.499Z,11.30
2022-12-01T12:54:55.427Z,11.80
2022-12-01T12:55:55.450Z,12.40
2022-12-01T12:56:55.401Z,11.90
2022-12-01T12:57:55.440Z,12.40
2022-12-01T12:58:55.462Z,11.20
2022-12-01T12:59:55.381Z,11.80
2022-12-01T13:00:55.348Z,11.90
2022-12-01T13:01:55.410Z,11.10
2022-12-01T13:02:55.371Z,11.20
2022-12-01T13:03:55.368Z,11.00
2022-12-01T13:04:55.306Z,11.60
2022-12-01T13:05:55.289Z,10.90
2022-12-01T13:06:55.278Z,11.20
2022-12-01T13:07:55.315Z,11.20
2022-12-01T13:08:55.310Z,10.40
2022-12-01T13:09:55.525Z,11.40
2022-12-01T13:10:55.244Z,10.20
2022-12-01T13:11:55.229Z,10.20